createdAt,value
2018-05-16T00:02:04.592Z,11.60
2018-05-16T00:04:33.034Z,11.50
2018-05-16T00:07:01.555Z,11.60
2018-05-16T00:09:30.696Z,11.60
2018-05-16T00:11:59.875Z,11.60
2018-05-16T00:14:28.461Z,11.60
2018-05-16T00:16:56.866Z,11.50
2018-05-16T00:19:25.311Z,11.60
2018-05-16T00:21:54.024Z,11.50
2018-05-16T00:24:24.946Z,11.60
2018-05-16T00:26:53.283Z,11.60
2018-05-16T00:29:22.443Z,11.60
2018-05-16T00:31:51.232Z,11.60
2018-05-16T00:34:19.707Z,11.60
2018-05-16T00:36:48.203Z,11.70
2018-05-16T00:39:16.889Z,11.60
2018-05-16T00:41:45.770Z,11.60
2018-05-16T00:44:14.175Z,11.60
2018-05-16T00:46:43.339Z,11.50
2018-05-16T00:49:11.711Z,11.50
2018-05-16T00:51:40.092Z,11.40
2018-05-16T00:54:09.314Z,11.40
2018-05-16T00:56:39.321Z,11.20
2018-05-16T00:59:07.964Z,11.20
2018-05-16T01:01:36.318Z,11.20
2018-05-16T01:04:05.754Z,11.20
2018-05-16T01:06:34.166Z,11.20
2018-05-16T01:09:02.650Z,11.20
2018-05-16T01:11:31.180Z,11.30
2018-05-16T01:13:59.913Z,11.20
2018-05-16T01:16:28.300Z,11.20
2018-05-16T01:18:56.830Z,11.20
2018-05-16T01:21:25.213Z,11.20
2018-05-16T01:23:54.876Z,11.20
2018-05-16T01:26:23.342Z,11.20
2018-05-16T01:28:51.744Z,11.30
2018-05-16T01:31:20.639Z,11.30
2018-05-16T01:33:49.007Z,11.20
2018-05-16T01:36:17.366Z,11.20
2018-05-16T01:38:46.080Z,11.00
2018-05-16T01:41:14.453Z,11.00
2018-05-16T01:43:42.820Z,11.10
2018-05-16T01:46:11.227Z,11.20
2018-05-16T01:48:39.616Z,11.10
2018-05-16T01:51:08.179Z,10.70
2018-05-16T01:53:37.318Z,10.50
2018-05-16T01:56:06.471Z,10.40
2018-05-16T01:58:35.455Z,10.40
2018-05-16T02:01:03.814Z,10.70
2018-05-16T02:03:32.626Z,10.80
2018-05-16T02:06:01.137Z,10.80
2018-05-16T02:08:29.613Z,10.50
2018-05-16T02:10:58.524Z,10.50
2018-05-16T02:13:28.569Z,10.40
2018-05-16T02:15:56.949Z,10.30
2018-05-16T02:18:25.327Z,10.50
2018-05-16T02:20:54.157Z,10.30
2018-05-16T02:23:22.942Z,10.20
2018-05-16T02:25:51.352Z,10.30
2018-05-16T02:28:19.723Z,10.50
2018-05-16T02:30:48.871Z,10.40
2018-05-16T02:33:17.935Z,10.40
2018-05-16T02:35:47.107Z,10.30
2018-05-16T02:38:15.544Z,10.30
2018-05-16T02:40:44.325Z,10.20
2018-05-16T02:43:12.994Z,10.30
2018-05-16T02:45:44.483Z,10.20
2018-05-16T02:48:13.141Z,10.20
2018-05-16T02:50:41.606Z,10.30
2018-05-16T02:53:11.053Z,10.30
2018-05-16T02:55:39.502Z,10.30
2018-05-16T02:58:07.832Z,10.30
2018-05-16T03:00:36.216Z,10.40
2018-05-16T03:03:06.072Z,10.40
2018-05-16T03:05:34.412Z,10.40
2018-05-16T03:08:06.878Z,10.20
2018-05-16T03:10:35.875Z,10.10
2018-05-16T03:13:04.260Z,10.10
2018-05-16T03:15:32.631Z,10.00
2018-05-16T03:18:01.381Z,10.00
2018-05-16T03:20:29.780Z,10.00
2018-05-16T03:22:58.945Z,10.00
2018-05-16T03:25:28.630Z,10.00
2018-05-16T03:27:58.768Z,10.10
2018-05-16T03:30:27.250Z,10.10
2018-05-16T03:32:56.348Z,10.20
2018-05-16T03:35:25.181Z,10.20
2018-05-16T03:37:53.541Z,10.20
2018-05-16T03:40:22.207Z,10.20
2018-05-16T03:42:50.652Z,10.30
2018-05-16T03:45:18.998Z,10.30
2018-05-16T03:47:47.837Z,10.20
2018-05-16T03:50:16.948Z,10.30
2018-05-16T03:52:45.328Z,10.20
2018-05-16T03:55:14.056Z,10.40
2018-05-16T03:57:47.128Z,10.30
2018-05-16T04:02:25.023Z,10.40
2018-05-16T04:04:53.778Z,10.40
2018-05-16T04:07:23.032Z,10.40
2018-05-16T04:09:51.369Z,10.40
2018-05-16T04:12:19.989Z,10.40
2018-05-16T04:14:48.725Z,10.40
2018-05-16T04:17:17.063Z,10.40
2018-05-16T04:19:45.677Z,10.40
2018-05-16T04:22:14.050Z,10.40
2018-05-16T04:24:42.399Z,10.60
2018-05-16T04:27:11.105Z,10.50
2018-05-16T04:29:39.707Z,10.80
2018-05-16T04:36:45.148Z,10.80
2018-05-16T04:39:14.031Z,10.80
2018-05-16T04:41:52.932Z,10.70
2018-05-16T04:44:21.821Z,10.50
2018-05-16T04:46:52.229Z,10.40
2018-05-16T04:49:22.360Z,10.40
2018-05-16T04:54:39.998Z,10.50
2018-05-16T04:57:20.500Z,10.50
2018-05-16T04:59:49.384Z,10.60
2018-05-16T05:02:17.771Z,10.70
2018-05-16T05:04:46.909Z,10.60
2018-05-16T05:07:15.665Z,10.60
2018-05-16T05:09:44.225Z,10.50
2018-05-16T05:12:15.995Z,10.50
2018-05-16T05:14:45.542Z,10.70
2018-05-16T05:17:14.853Z,10.60
2018-05-16T05:19:43.235Z,10.70
2018-05-16T05:22:20.954Z,10.50
2018-05-16T05:25:03.930Z,10.50
2018-05-16T05:27:35.274Z,10.20
2018-05-16T05:30:13.243Z,10.20
2018-05-16T05:36:03.522Z,10.40
2018-05-16T05:38:33.688Z,10.50
2018-05-16T05:41:04.774Z,10.50
2018-05-16T05:43:35.292Z,10.60
2018-05-16T05:46:11.112Z,10.40
2018-05-16T05:48:42.488Z,10.40
2018-05-16T05:51:13.628Z,10.40
2018-05-16T05:53:44.837Z,10.50
2018-05-16T05:56:14.395Z,10.40
2018-05-16T05:58:42.758Z,10.40
2018-05-16T06:01:11.116Z,10.40
2018-05-16T06:03:40.079Z,10.40
2018-05-16T06:06:09.736Z,10.40
2018-05-16T06:08:42.403Z,10.50
2018-05-16T06:11:40.555Z,10.40
2018-05-16T06:14:11.877Z,10.30
2018-05-16T06:16:42.707Z,10.40
2018-05-16T06:19:13.813Z,10.30
2018-05-16T06:21:42.175Z,10.40
2018-05-16T06:24:12.522Z,10.40
2018-05-16T06:26:41.050Z,10.40
2018-05-16T06:29:09.605Z,10.40
2018-05-16T06:31:40.125Z,10.40
2018-05-16T06:34:08.524Z,10.40
2018-05-16T06:36:44.261Z,10.50
2018-05-16T06:39:17.021Z,10.70
2018-05-16T06:41:51.401Z,10.80
2018-05-16T06:44:19.777Z,10.80
2018-05-16T06:46:48.163Z,10.90
2018-05-16T06:49:25.306Z,11.20
2018-05-16T06:55:02.939Z,11.20
2018-05-16T06:57:33.712Z,11.40
2018-05-16T07:00:02.896Z,11.80
2018-05-16T07:02:50.382Z,11.60
2018-05-16T07:05:23.289Z,11.70
2018-05-16T07:07:51.752Z,11.70
2018-05-16T07:10:20.634Z,11.90
2018-05-16T07:12:51.457Z,12.00
2018-05-16T07:15:21.133Z,12.10
2018-05-16T07:17:51.393Z,11.70
2018-05-16T07:20:20.968Z,11.70
2018-05-16T07:22:53.730Z,11.80
2018-05-16T07:25:22.061Z,11.80
2018-05-16T07:27:52.517Z,11.90
2018-05-16T07:30:20.856Z,11.60
2018-05-16T07:32:50.900Z,11.70
2018-05-16T07:35:23.157Z,11.70
2018-05-16T07:38:02.428Z,11.80
2018-05-16T07:40:32.418Z,11.70
2018-05-16T07:43:01.604Z,11.90
2018-05-16T07:45:30.199Z,11.90
2018-05-16T07:48:00.604Z,12.10
2018-05-16T07:50:31.210Z,12.40
2018-05-16T07:52:59.908Z,12.60
2018-05-16T07:55:30.332Z,11.80
2018-05-16T07:58:07.862Z,11.80
2018-05-16T08:00:38.167Z,11.80
2018-05-16T08:03:11.132Z,11.80
2018-05-16T08:06:16.576Z,11.90
2018-05-16T08:12:00.276Z,12.80
2018-05-16T08:14:29.053Z,12.80
2018-05-16T08:17:02.263Z,13.20
2018-05-16T08:19:31.084Z,13.20
2018-05-16T08:22:13.863Z,13.00
2018-05-16T08:31:14.294Z,12.40
2018-05-16T08:33:43.987Z,12.90
2018-05-16T08:36:12.768Z,13.10
2018-05-16T08:38:41.116Z,12.90
2018-05-16T08:41:43.843Z,12.90
2018-05-16T08:44:15.633Z,13.40
2018-05-16T08:46:45.353Z,13.40
2018-05-16T08:49:23.531Z,13.50
2018-05-16T08:51:52.537Z,13.60
2018-05-16T08:54:22.239Z,13.00
2018-05-16T08:57:08.399Z,13.30
2018-05-16T09:00:04.818Z,13.60
2018-05-16T09:02:37.021Z,13.90
2018-05-16T09:05:08.984Z,13.90
2018-05-16T09:07:37.902Z,14.10
2018-05-16T09:10:06.596Z,14.50
2018-05-16T09:12:35.025Z,14.40
2018-05-16T09:15:06.993Z,14.20
2018-05-16T09:17:40.409Z,14.20
2018-05-16T09:20:15.819Z,14.80
2018-05-16T09:22:47.866Z,15.00
2018-05-16T09:25:16.227Z,15.50
2018-05-16T09:27:45.691Z,16.30
2018-05-16T09:30:28.021Z,16.30
2018-05-16T09:33:01.317Z,16.60
2018-05-16T09:35:37.713Z,16.60
2018-05-16T09:38:09.358Z,16.50
2018-05-16T09:40:48.705Z,15.80
2018-05-16T09:43:21.008Z,15.70
2018-05-16T09:45:55.213Z,16.20
2018-05-16T09:48:25.130Z,16.20
2018-05-16T09:50:53.860Z,16.30
2018-05-16T09:53:35.098Z,15.20
2018-05-16T09:56:05.547Z,14.80
2018-05-16T09:58:37.967Z,15.20
2018-05-16T10:01:20.370Z,15.60
2018-05-16T10:03:53.807Z,16.00
2018-05-16T10:06:24.691Z,15.20
2018-05-16T10:09:25.299Z,15.50
2018-05-16T10:12:09.170Z,15.80
2018-05-16T10:14:41.726Z,15.80
2018-05-16T10:18:01.066Z,15.50
2018-05-16T10:20:31.720Z,15.30
2018-05-16T10:23:20.376Z,14.90
2018-05-16T10:25:49.556Z,14.30
2018-05-16T10:28:20.174Z,14.30
2018-05-16T10:30:48.905Z,14.90
2018-05-16T10:33:17.404Z,14.90
2018-05-16T10:36:03.081Z,14.90
2018-05-16T10:38:33.834Z,14.90
2018-05-16T10:41:03.469Z,14.40
2018-05-16T10:43:35.817Z,14.40
2018-05-16T10:46:04.960Z,14.10
2018-05-16T10:48:33.603Z,14.10
2018-05-16T10:51:05.254Z,14.50
2018-05-16T10:53:35.193Z,14.80
2018-05-16T10:56:03.872Z,15.10
2018-05-16T10:58:33.857Z,14.70
2018-05-16T11:01:02.202Z,14.80
2018-05-16T11:03:37.836Z,15.00
2018-05-16T11:06:06.392Z,15.50
2018-05-16T11:08:35.277Z,15.60
2018-05-16T11:14:48.966Z,15.60
2018-05-16T11:17:18.225Z,15.40
2018-05-16T11:19:46.711Z,14.70
2018-05-16T11:22:15.185Z,14.90
2018-05-16T11:24:46.430Z,15.30
2018-05-16T11:27:14.843Z,15.40
2018-05-16T11:29:43.988Z,16.10
2018-05-16T11:32:12.804Z,16.10
2018-05-16T11:34:41.200Z,15.80
2018-05-16T11:37:10.450Z,14.70
2018-05-16T11:39:40.593Z,14.60
2018-05-16T11:42:09.412Z,14.40
2018-05-16T11:44:42.692Z,14.70
2018-05-16T11:47:13.673Z,14.60
2018-05-16T11:49:50.920Z,14.50
2018-05-16T11:52:25.657Z,14.60
2018-05-16T11:55:06.021Z,13.90
2018-05-16T11:57:40.716Z,13.90
2018-05-16T12:00:19.636Z,14.50
2018-05-16T12:03:15.702Z,14.90
2018-05-16T12:05:48.216Z,15.20
2018-05-16T12:08:17.932Z,15.10
2018-05-16T12:10:50.087Z,15.40
2018-05-16T12:13:20.786Z,15.40
2018-05-16T12:15:52.646Z,15.50
2018-05-16T12:18:25.367Z,16.00
2018-05-16T12:21:27.543Z,16.40
2018-05-16T12:23:57.103Z,16.30
2018-05-16T12:26:26.602Z,16.40
2018-05-16T12:29:01.843Z,16.20
2018-05-16T12:31:30.927Z,15.30
2018-05-16T12:34:00.072Z,15.00
2018-05-16T12:36:29.495Z,14.90
2018-05-16T12:39:00.405Z,14.80
2018-05-16T12:41:30.653Z,14.90
2018-05-16T12:44:01.071Z,15.40
2018-05-16T12:46:35.185Z,16.10
2018-05-16T12:49:04.362Z,16.20
2018-05-16T12:51:32.749Z,16.20
2018-05-16T12:54:03.278Z,16.20
2018-05-16T12:56:32.553Z,16.20
2018-05-16T12:59:03.345Z,16.30
2018-05-16T13:01:32.357Z,15.70
2018-05-16T13:04:04.781Z,15.90
2018-05-16T13:06:44.021Z,16.30
2018-05-16T13:09:13.314Z,16.50
2018-05-16T13:11:42.424Z,16.10
2018-05-16T13:14:10.784Z,16.10
2018-05-16T13:16:41.366Z,15.10
2018-05-16T13:19:10.117Z,15.60
2018-05-16T13:21:44.293Z,15.80
2018-05-16T13:24:14.000Z,15.90
2018-05-16T13:26:59.614Z,15.90
2018-05-16T13:29:33.941Z,15.90
2018-05-16T13:32:02.733Z,15.60
2018-05-16T13:34:31.192Z,15.80
2018-05-16T13:37:01.719Z,15.80
2018-05-16T13:39:33.193Z,15.70
2018-05-16T13:42:02.725Z,15.70
2018-05-16T13:44:33.251Z,15.30
2018-05-16T13:47:01.999Z,15.30
2018-05-16T13:49:31.176Z,14.70
2018-05-16T13:52:00.029Z,14.60
2018-05-16T13:54:35.864Z,14.30
2018-05-16T13:57:18.169Z,14.20
2018-05-16T13:59:48.021Z,14.10
2018-05-16T14:02:16.869Z,13.90
2018-05-16T14:04:56.279Z,13.30
2018-05-16T14:07:25.023Z,13.30
2018-05-16T14:09:57.554Z,13.20
2018-05-16T14:12:26.331Z,13.30
2018-05-16T14:14:59.071Z,13.50
2018-05-16T14:17:35.416Z,13.60
2018-05-16T14:20:12.447Z,13.80
2018-05-16T14:22:40.876Z,13.70
2018-05-16T14:25:26.674Z,13.50
2018-05-16T14:28:14.539Z,13.40
2018-05-16T14:30:42.892Z,13.30
2018-05-16T14:33:11.766Z,13.00
2018-05-16T14:38:59.751Z,13.10
2018-05-16T14:41:28.106Z,12.90
2018-05-16T14:43:56.456Z,12.60
2018-05-16T14:46:25.712Z,12.80
2018-05-16T14:49:06.755Z,12.80
2018-05-16T14:51:36.186Z,12.90
2018-05-16T14:54:04.561Z,12.90
2018-05-16T14:56:33.216Z,12.80
2018-05-16T14:59:04.032Z,12.60
2018-05-16T15:01:33.935Z,12.50
2018-05-16T15:04:02.795Z,12.50
2018-05-16T15:06:32.102Z,12.30
2018-05-16T15:09:02.394Z,12.30
2018-05-16T15:12:02.362Z,11.90
2018-05-16T15:14:33.397Z,11.90
2018-05-16T15:17:04.306Z,11.80
2018-05-16T15:22:47.644Z,11.60
2018-05-16T15:25:18.604Z,11.70
2018-05-16T15:27:48.097Z,11.80
2018-05-16T15:30:16.920Z,12.00
2018-05-16T15:32:46.984Z,12.10
2018-05-16T15:35:16.262Z,11.90
2018-05-16T15:37:53.257Z,12.10
2018-05-16T15:40:23.480Z,12.20
2018-05-16T15:43:25.746Z,12.30
2018-05-16T15:46:15.365Z,12.30
2018-05-16T15:48:45.954Z,12.20
2018-05-16T15:51:15.577Z,12.10
2018-05-16T15:53:44.697Z,12.00
2018-05-16T15:56:15.483Z,12.00
2018-05-16T15:58:44.549Z,12.10
2018-05-16T16:01:12.897Z,12.20
2018-05-16T16:03:41.286Z,12.10
2018-05-16T16:06:10.935Z,12.10
2018-05-16T16:08:39.325Z,12.20
2018-05-16T16:11:08.835Z,12.40
2018-05-16T16:13:37.605Z,12.20
2018-05-16T16:16:06.413Z,12.10
2018-05-16T16:18:37.883Z,12.10
2018-05-16T16:21:08.336Z,12.30
2018-05-16T16:23:37.506Z,12.30
2018-05-16T16:26:05.931Z,12.50
2018-05-16T16:28:34.664Z,12.50
2018-05-16T16:31:03.250Z,12.60
2018-05-16T16:33:37.742Z,12.20
2018-05-16T16:36:06.559Z,12.30
2018-05-16T16:38:34.917Z,12.30
2018-05-16T16:41:03.467Z,12.40
2018-05-16T16:43:33.828Z,12.40
2018-05-16T16:46:03.381Z,12.70
2018-05-16T16:48:31.742Z,13.00
2018-05-16T16:51:01.416Z,13.10
2018-05-16T16:53:33.246Z,13.00
2018-05-16T16:56:06.189Z,12.90
2018-05-16T16:58:35.913Z,12.60
2018-05-16T17:01:04.723Z,12.80
2018-05-16T17:03:33.317Z,12.80
2018-05-16T17:06:06.526Z,12.60
2018-05-16T17:08:41.426Z,12.50
2018-05-16T17:11:09.814Z,12.40
2018-05-16T17:13:38.485Z,12.40
2018-05-16T17:16:07.685Z,12.30
2018-05-16T17:18:37.687Z,12.30
2018-05-16T17:21:11.933Z,12.30
2018-05-16T17:23:44.209Z,12.30
2018-05-16T17:26:14.596Z,12.30
2018-05-16T17:28:45.801Z,12.30
2018-05-16T17:31:14.709Z,12.40
2018-05-16T17:33:43.491Z,12.00
2018-05-16T17:36:12.366Z,12.00
2018-05-16T17:38:41.205Z,11.90
2018-05-16T17:41:10.419Z,11.80
2018-05-16T17:44:14.829Z,12.00
2018-05-16T17:46:46.006Z,12.00
2018-05-16T17:49:41.030Z,11.90
2018-05-16T17:52:09.797Z,11.70
2018-05-16T17:54:38.162Z,11.70
2018-05-16T17:57:06.522Z,11.60
2018-05-16T17:59:39.472Z,11.70
2018-05-16T18:02:09.211Z,11.60
2018-05-16T18:04:37.729Z,11.50
2018-05-16T18:07:06.105Z,11.70
2018-05-16T18:09:34.480Z,11.60
2018-05-16T18:12:05.475Z,11.60
2018-05-16T18:14:50.455Z,11.50
2018-05-16T18:17:28.502Z,11.50
2018-05-16T18:19:58.439Z,11.40
2018-05-16T18:22:28.173Z,11.30
2018-05-16T18:25:00.202Z,11.30
2018-05-16T18:27:29.363Z,11.60
2018-05-16T18:29:57.704Z,11.50
2018-05-16T18:32:26.056Z,11.50
2018-05-16T18:34:54.906Z,11.50
2018-05-16T18:37:23.996Z,11.70
2018-05-16T18:39:55.335Z,11.80
2018-05-16T18:42:24.036Z,11.80
2018-05-16T18:44:52.349Z,11.80
2018-05-16T18:47:20.793Z,11.50
2018-05-16T18:49:49.486Z,11.30
2018-05-16T18:52:20.984Z,11.20
2018-05-16T18:54:49.321Z,11.20
2018-05-16T18:57:18.129Z,11.30
2018-05-16T18:59:47.230Z,11.30
2018-05-16T19:02:15.572Z,11.30
2018-05-16T19:04:44.283Z,11.50
2018-05-16T19:07:16.864Z,11.40
2018-05-16T19:09:45.213Z,11.50
2018-05-16T19:12:13.936Z,11.60
2018-05-16T19:14:42.287Z,11.50
2018-05-16T19:17:10.681Z,11.50
2018-05-16T19:19:40.733Z,11.40
2018-05-16T19:22:09.096Z,11.40
2018-05-16T19:24:37.694Z,11.50
2018-05-16T19:27:32.216Z,11.50
2018-05-16T19:30:08.863Z,11.50
2018-05-16T19:32:57.396Z,11.60
2018-05-16T19:35:42.722Z,11.50
2018-05-16T19:38:11.537Z,11.30
2018-05-16T19:40:41.415Z,11.40
2018-05-16T19:43:10.461Z,11.50
2018-05-16T19:45:39.997Z,11.40
2018-05-16T19:48:08.386Z,11.40
2018-05-16T19:50:37.484Z,11.50
2018-05-16T19:53:06.124Z,11.50
2018-05-16T19:55:35.255Z,11.80
2018-05-16T19:58:03.673Z,11.80
2018-05-16T20:00:33.729Z,11.90
2018-05-16T20:03:02.090Z,11.90
2018-05-16T20:05:30.434Z,11.60
2018-05-16T20:07:59.228Z,11.50
2018-05-16T20:10:28.271Z,11.70
2018-05-16T20:12:56.818Z,11.70
2018-05-16T20:15:25.455Z,11.60
2018-05-16T20:17:53.809Z,11.50
2018-05-16T20:20:22.989Z,11.40
2018-05-16T20:22:52.552Z,11.60
2018-05-16T20:25:20.880Z,11.60
2018-05-16T20:27:49.793Z,11.60
2018-05-16T20:30:20.229Z,11.20
2018-05-16T20:32:48.590Z,11.20
2018-05-16T20:35:16.900Z,11.20
2018-05-16T20:37:45.716Z,11.20
2018-05-16T20:40:14.103Z,11.20
2018-05-16T20:42:42.545Z,11.20
2018-05-16T20:45:11.349Z,11.30
2018-05-16T20:47:39.940Z,11.10
2018-05-16T20:50:08.649Z,11.10
2018-05-16T20:52:37.399Z,11.00
2018-05-16T20:55:05.829Z,11.00
2018-05-16T20:57:34.953Z,11.10
2018-05-16T21:00:03.669Z,11.00
2018-05-16T21:02:32.059Z,11.00
2018-05-16T21:05:00.436Z,11.20
2018-05-16T21:07:29.094Z,11.30
2018-05-16T21:09:57.830Z,11.30
2018-05-16T21:12:26.308Z,11.30
2018-05-16T21:14:55.901Z,11.20
2018-05-16T21:17:24.686Z,11.10
2018-05-16T21:19:53.037Z,11.00
2018-05-16T21:22:21.677Z,11.10
2018-05-16T21:24:50.004Z,11.00
2018-05-16T21:27:18.339Z,10.90
2018-05-16T21:29:50.179Z,11.10
2018-05-16T21:32:21.041Z,11.20
2018-05-16T21:34:49.456Z,11.10
2018-05-16T21:37:17.816Z,11.20
2018-05-16T21:39:47.264Z,11.00
2018-05-16T21:42:15.627Z,11.00
2018-05-16T21:44:43.964Z,11.00
2018-05-16T21:47:12.644Z,10.90
2018-05-16T21:49:40.985Z,11.00
2018-05-16T21:52:09.598Z,10.90
2018-05-16T21:54:38.385Z,10.90
2018-05-16T21:57:07.268Z,10.90
2018-05-16T21:59:35.616Z,11.00
2018-05-16T22:02:06.449Z,11.00
2018-05-16T22:04:36.031Z,10.90
2018-05-16T22:07:04.673Z,10.80
2018-05-16T22:09:36.492Z,11.00
2018-05-16T22:12:05.475Z,11.00
2018-05-16T22:14:36.348Z,11.10
2018-05-16T22:17:05.509Z,10.90
2018-05-16T22:19:34.703Z,10.80
2018-05-16T22:22:03.391Z,10.80
2018-05-16T22:24:31.745Z,11.00
2018-05-16T22:27:00.076Z,11.00
2018-05-16T22:29:28.428Z,11.20
2018-05-16T22:32:03.511Z,11.20
2018-05-16T22:34:37.632Z,11.40
2018-05-16T22:37:11.427Z,11.20
2018-05-16T22:39:45.665Z,11.10
2018-05-16T22:42:19.434Z,11.00
2018-05-16T22:44:47.935Z,10.90
2018-05-16T22:47:16.276Z,11.20
2018-05-16T22:49:44.612Z,11.30
2018-05-16T22:52:13.788Z,11.10
2018-05-16T22:54:42.143Z,11.00
2018-05-16T22:57:10.989Z,10.90
2018-05-16T22:59:40.303Z,10.90
2018-05-16T23:02:08.656Z,10.90
2018-05-16T23:04:38.199Z,10.90
2018-05-16T23:07:07.283Z,10.80
2018-05-16T23:09:35.951Z,10.80
2018-05-16T23:12:04.397Z,10.70
2018-05-16T23:14:33.325Z,10.90
2018-05-16T23:17:01.682Z,11.00
2018-05-16T23:19:31.853Z,10.90
2018-05-16T23:22:00.863Z,10.80
2018-05-16T23:24:29.191Z,10.80
2018-05-16T23:26:57.570Z,10.90
2018-05-16T23:29:26.405Z,10.80
2018-05-16T23:31:54.753Z,10.70
2018-05-16T23:34:23.187Z,11.00
2018-05-16T23:36:51.559Z,10.90
2018-05-16T23:39:19.937Z,10.90
2018-05-16T23:41:48.267Z,10.80
2018-05-16T23:44:16.608Z,10.80
2018-05-16T23:46:44.967Z,10.90
2018-05-16T23:49:13.636Z,10.70
2018-05-16T23:51:42.287Z,10.70
2018-05-16T23:54:10.629Z,10.90
2018-05-16T23:56:38.956Z,10.90
2018-05-16T23:59:08.176Z,11.20
